• Join FlightAware (Why Join?)
  • Login
  • US Flag 
01:37PM EDT


 

Airport Tracker/Info


-or-


 

Live Flight TrackerFlight Track Log ✈ AAL2356 ✈ 12-Jul-2013 ✈ KDFW - KORD

Flight Track Log - Related Links

Times and Time Zones

All times are in EDT time to prevent confusion due to time zone crossing. See the AAL2356 flight status page for this flight to view local times or setup timezone preferences in your user account.

Time Position Orientation Groundspeed Altitude Reporting Facility
EDT Latitude Longitude Course Direction KTS MPH feet Rate Location/Type
02:25PM 32.8833 -97.0333 North 194 223 1,300  Level Dallas / Fort Worth TRACON
02:26PM 32.8333 -97.0167 164° South 196 226 3,100 1,860 Climbing Dallas / Fort Worth TRACON
02:27PM 32.7550 -96.8750 77° East  Level FlightAware Approximate
02:27PM 32.7833 -96.9833 151° Southeast 233 268 4,600  Level Dallas / Fort Worth TRACON
02:28PM 32.8254 -96.8049 10° North  Level FlightAware Approximate
02:28PM 32.7667 -96.9167 107° East 270 311 6,400  Level Dallas / Fort Worth TRACON
02:29PM 32.9351 -96.8000 North  Level FlightAware Approximate
02:29PM 32.8300 -96.8125 54° Northeast 272 313 10,500  Level Fort Worth Center
02:30PM 33.0451 -96.8000 North  Level FlightAware Approximate
02:30PM 32.9069 -96.8097 North 281 323 12,700  Level Fort Worth Center
02:31PM 33.0072 -96.8114 359° North 295 339 14,300 1,740 Climbing Fort Worth Center
02:32PM 33.1075 -96.8133 359° North 348 400 16,300 2,100 Climbing Fort Worth Center
02:33PM 33.1969 -96.7556 28° Northeast 354 407 18,600 1,920 Climbing Fort Worth Center
02:34PM 33.2886 -96.7003 27° Northeast 360 414 20,200 1,680 Climbing Fort Worth Center
02:35PM 33.3864 -96.6472 24° Northeast 365 420 22,000 1,500 Climbing Fort Worth Center
02:36PM 33.4633 -96.5992 28° Northeast 370 426 23,200 1,320 Climbing Fort Worth Center
02:37PM 33.5692 -96.5358 26° Northeast 375 432 24,700 1,140 Climbing Fort Worth Center
02:38PM 33.6711 -96.4800 25° Northeast 386 444 25,500 660 Climbing Fort Worth Center
02:39PM 33.7792 -96.4164 26° Northeast 399 459 26,100 840 Climbing Fort Worth Center
02:40PM 33.8933 -96.3500 26° Northeast 425 489 27,200 1,320 Climbing Fort Worth Center
02:41PM 34.0033 -96.2861 26° Northeast 431 496 28,800 900 Climbing Fort Worth Center
02:42PM 34.1175 -96.2169 27° Northeast 431 496 29,000 60 Climbing Fort Worth Center
02:43PM 34.2317 -96.1500 26° Northeast 431 496 29,000  Level Fort Worth Center
02:44PM 34.3436 -96.0831 26° Northeast 431 496 29,000  Level Fort Worth Center
02:45PM 34.4536 -96.0183 26° Northeast 438 504 29,000  Level Fort Worth Center
02:46PM 34.5656 -95.9508 26° Northeast 438 504 29,000  Level Fort Worth Center
02:47PM 34.6753 -95.8858 26° Northeast 443 510 29,000  Level Fort Worth Center
02:48PM 34.7872 -95.8208 25° Northeast 438 504 29,000  Level Fort Worth Center
02:49PM 34.8944 -95.7428 31° Northeast 438 504 29,000  Level Fort Worth Center
02:51PM 35.0822 -95.5664 38° Northeast 458 527 29,000  Level Memphis Center
02:52PM 35.1756 -95.4758 38° Northeast 445 512 29,000  Level Memphis Center
02:53PM 35.2731 -95.3850 37° Northeast 434 499 29,000  Level Memphis Center
02:54PM 35.3686 -95.2942 38° Northeast 434 499 29,000  Level Memphis Center
02:55PM 35.4639 -95.2028 38° Northeast 434 499 29,000  Level Memphis Center
02:56PM 35.5572 -95.1086 39° Northeast 434 499 29,000  Level Memphis Center
02:57PM 35.6525 -95.0172 38° Northeast 434 499 29,000  Level Memphis Center
02:58PM 35.7475 -94.9303 37° Northeast 439 505 29,000  Level Memphis Center
02:59PM 35.8447 -94.8333 39° Northeast 439 505 29,000  Level Memphis Center
03:00PM 35.9397 -94.7436 37° Northeast 439 505 29,000  Level Memphis Center
03:01PM 36.0347 -94.6536 37° Northeast 434 499 29,000  Level Memphis Center
03:03PM 36.2172 -94.4719 39° Northeast 434 499 29,000  Level Kansas City Center
03:04PM 36.3111 -94.3800 38° Northeast 431 496 29,000  Level Kansas City Center
03:05PM 36.4064 -94.2875 38° Northeast 434 499 29,000  Level Kansas City Center
03:06PM 36.5181 -94.1761 39° Northeast 431 496 29,000  Level Kansas City Center
03:07PM 36.6125 -94.0831 38° Northeast 432 497 29,000  Level Kansas City Center
03:08PM 36.7072 -93.9892 38° Northeast 434 499 29,000  Level Kansas City Center
03:09PM 36.7994 -93.8967 39° Northeast 429 494 29,000  Level Kansas City Center
03:10PM 36.8944 -93.8039 38° Northeast 432 497 29,000  Level Kansas City Center
03:11PM 36.9847 -93.7081 40° Northeast 427 491 29,000  Level Kansas City Center
03:12PM 37.0975 -93.5953 39° Northeast 430 495 29,000  Level Kansas City Center
03:14PM 37.1903 -93.5014 39° Northeast 429 494 29,000  Level Kansas City Center
03:15PM 37.2853 -93.4092 38° Northeast 431 496 29,000  Level Kansas City Center
03:16PM 37.3781 -93.3153 39° Northeast 428 493 29,000  Level Kansas City Center
03:17PM 37.4731 -93.2247 37° Northeast 427 491 29,000  Level Kansas City Center
03:18PM 37.5700 -93.1356 36° Northeast 429 494 29,000  Level Kansas City Center
03:19PM 37.6675 -93.0486 35° Northeast 428 493 29,000  Level Kansas City Center
03:20PM 37.7814 -92.9389 37° Northeast 425 489 29,000  Level Kansas City Center
03:21PM 37.8781 -92.8503 36° Northeast 426 490 29,000  Level Kansas City Center
03:22PM 37.9747 -92.7586 37° Northeast 428 493 29,000  Level Kansas City Center
03:23PM 38.0739 -92.6669 36° Northeast 426 490 29,000  Level Kansas City Center
03:24PM 38.1697 -92.5758 37° Northeast 428 493 29,000  Level Kansas City Center
03:25PM 38.2658 -92.4861 36° Northeast 427 491 29,000  Level Kansas City Center
03:26PM 38.3572 -92.3989 37° Northeast 418 481 29,000  Level Kansas City Center
03:27PM 38.4486 -92.3114 37° Northeast 412 474 29,000  Level Kansas City Center
03:28PM 38.5408 -92.2228 37° Northeast 411 473 29,000  Level Kansas City Center
03:29PM 38.6506 -92.1169 37° Northeast 411 473 29,000  Level Kansas City Center
03:30PM 38.7417 -92.0297 37° Northeast 409 471 29,000  Level Kansas City Center
03:31PM 38.8322 -91.9408 37° Northeast 408 470 29,000  Level Kansas City Center
03:32PM 38.9261 -91.8514 37° Northeast 416 479 29,000  Level Kansas City Center
03:33PM 39.0206 -91.7589 37° Northeast 424 488 29,000  Level Kansas City Center
03:34PM 39.1122 -91.6700 37° Northeast 428 493 29,000  Level Kansas City Center
03:35PM 39.2253 -91.5586 37° Northeast 426 490 29,000  Level Kansas City Center
03:36PM 39.3208 -91.4656 37° Northeast 429 494 29,000  Level Kansas City Center
03:37PM 39.4164 -91.3714 37° Northeast 430 495 29,000  Level Kansas City Center
03:38PM 39.5106 -91.2775 38° Northeast 428 493 29,000  Level Kansas City Center
03:39PM 39.6064 -91.1828 37° Northeast 431 496 29,000  Level Kansas City Center
03:40PM 39.7019 -91.0878 37° Northeast 431 496 29,000  Level Kansas City Center
03:41PM 39.8042 -90.9844 38° Northeast 428 493 29,000  Level Kansas City Center
03:42PM 39.9094 -90.8794 37° Northeast 427 491 29,000  Level Kansas City Center
03:44PM 40.0036 -90.7847 38° Northeast 428 493 29,000  Level Kansas City Center
03:45PM 40.0961 -90.6889 38° Northeast 425 489 29,000  Level Kansas City Center
03:46PM 40.1900 -90.5939 38° Northeast 426 490 29,000  Level Kansas City Center
03:47PM 40.2842 -90.5006 37° Northeast 425 489 29,000  Level Kansas City Center
03:48PM 40.3767 -90.4036 39° Northeast 424 488 29,000  Level Kansas City Center
03:49PM 40.4878 -90.2908 38° Northeast 422 486 29,000  Level Kansas City Center
03:50PM 40.5797 -90.1936 39° Northeast 423 487 29,000  Level Kansas City Center
03:51PM 40.6728 -90.0997 37° Northeast 426 490 29,000 -480 Level Kansas City Center
03:52PM 40.7653 -90.0050 38° Northeast 424 488 28,100 -1,140 Descending Kansas City Center
03:53PM 40.8689 -89.8981 38° Northeast 435 501 26,700 -1,500 Descending Kansas City Center
03:54PM 40.9772 -89.7511 46° Northeast 438 504 24,600 -1,320 Descending Chicago Center
03:56PM 41.0960 -89.6363 36° Northeast  Level FlightAware Approximate
03:56PM 41.1233 -89.4667 36° Northeast 438 504 22,200  Level Chicago Center
03:57PM 41.1894 -89.3381 56° Northeast 425 489 20,100 -2,160 Descending Chicago Center
03:58PM 41.2544 -89.2147 55° Northeast 409 471 17,800 -2,040 Descending Chicago Center
03:59PM 41.3161 -89.0875 57° Northeast 396 456 15,900 -1,920 Descending Chicago Center
04:00PM 41.3778 -88.9675 56° Northeast 395 455 13,900 -2,040 Descending Chicago Center
04:01PM 41.4503 -88.8281 55° Northeast 383 441 11,800 -1,440 Descending Chicago Center
04:02PM 41.5083 -88.7139 56° Northeast 374 430 11,000 -420 Descending Chicago Center
04:03PM 41.5569 -88.5936 62° Northeast 370 426 11,000 -180 Level Chicago Center
04:05PM 41.6169 -88.4894 52° Northeast 348 400 10,700 -600 Descending Chicago Center
04:06PM 41.6722 -88.4050 49° Northeast 307 353 9,800 -1,200 Descending Chicago Center
04:07PM 41.7458 -88.3725 18° North 288 331 8,300 -1,620 Descending Chicago Center
04:08PM 41.8350 -88.3375 16° North 279 321 6,500 -1,680 Descending Chicago Center
04:09PM 41.9081 -88.3125 14° North 274 315 4,900 -1,560 Descending Chicago Center